sensor_id;sensor_type;location;lat;lon;timestamp;P1;durP1;ratioP1;P2;durP2;ratioP2
18228;SDS011;9239;50.932;3.142;2023-06-01T00:02:11;23.90;;;16.57;;
18228;SDS011;9239;50.932;3.142;2023-06-01T00:04:38;27.27;;;18.20;;
18228;SDS011;9239;50.932;3.142;2023-06-01T00:07:06;28.40;;;19.00;;
18228;SDS011;9239;50.932;3.142;2023-06-01T00:09:33;23.60;;;17.00;;
18228;SDS011;9239;50.932;3.142;2023-06-01T00:12:00;25.63;;;18.00;;
18228;SDS011;9239;50.932;3.142;2023-06-01T00:14:27;26.77;;;17.47;;
18228;SDS011;9239;50.932;3.142;2023-06-01T00:16:55;31.60;;;19.93;;
18228;SDS011;9239;50.932;3.142;2023-06-01T00:19:23;27.77;;;19.03;;
18228;SDS011;9239;50.932;3.142;2023-06-01T00:21:51;27.93;;;18.13;;
18228;SDS011;9239;50.932;3.142;2023-06-01T00:24:18;40.27;;;19.43;;
18228;SDS011;9239;50.932;3.142;2023-06-01T00:26:45;30.87;;;20.13;;
18228;SDS011;9239;50.932;3.142;2023-06-01T00:29:12;32.27;;;19.30;;
18228;SDS011;9239;50.932;3.142;2023-06-01T00:31:39;27.93;;;18.50;;
18228;SDS011;9239;50.932;3.142;2023-06-01T00:34:08;32.80;;;21.73;;
18228;SDS011;9239;50.932;3.142;2023-06-01T00:36:34;26.73;;;20.47;;
18228;SDS011;9239;50.932;3.142;2023-06-01T00:39:01;24.93;;;18.47;;
18228;SDS011;9239;50.932;3.142;2023-06-01T00:41:29;35.57;;;21.93;;
18228;SDS011;9239;50.932;3.142;2023-06-01T00:43:56;27.53;;;20.03;;
18228;SDS011;9239;50.932;3.142;2023-06-01T00:46:23;33.83;;;21.80;;
18228;SDS011;9239;50.932;3.142;2023-06-01T00:48:50;28.17;;;20.33;;
18228;SDS011;9239;50.932;3.142;2023-06-01T00:51:18;31.57;;;22.10;;
18228;SDS011;9239;50.932;3.142;2023-06-01T00:53:46;36.50;;;22.57;;
18228;SDS011;9239;50.932;3.142;2023-06-01T00:56:13;40.20;;;21.97;;
18228;SDS011;9239;50.932;3.142;2023-06-01T00:58:41;31.63;;;22.80;;
18228;SDS011;9239;50.932;3.142;2023-06-01T01:01:09;37.87;;;20.97;;
18228;SDS011;9239;50.932;3.142;2023-06-01T01:03:43;32.40;;;20.30;;
18228;SDS011;9239;50.932;3.142;2023-06-01T01:06:16;38.10;;;21.87;;
18228;SDS011;9239;50.932;3.142;2023-06-01T01:08:54;37.33;;;22.43;;
18228;SDS011;9239;50.932;3.142;2023-06-01T01:11:32;30.13;;;22.00;;
18228;SDS011;9239;50.932;3.142;2023-06-01T01:14:01;35.73;;;23.07;;
18228;SDS011;9239;50.932;3.142;2023-06-01T01:16:35;33.23;;;24.60;;
18228;SDS011;9239;50.932;3.142;2023-06-01T01:19:14;32.87;;;22.20;;
18228;SDS011;9239;50.932;3.142;2023-06-01T01:22:01;37.50;;;24.37;;
18228;SDS011;9239;50.932;3.142;2023-06-01T01:24:43;40.70;;;25.20;;
18228;SDS011;9239;50.932;3.142;2023-06-01T01:27:22;35.57;;;25.17;;
18228;SDS011;9239;50.932;3.142;2023-06-01T01:29:58;36.83;;;25.30;;
18228;SDS011;9239;50.932;3.142;2023-06-01T01:32:30;42.93;;;25.50;;
18228;SDS011;9239;50.932;3.142;2023-06-01T01:35:00;37.83;;;25.63;;
18228;SDS011;9239;50.932;3.142;2023-06-01T01:37:29;40.87;;;25.37;;
18228;SDS011;9239;50.932;3.142;2023-06-01T01:39:58;35.93;;;25.27;;
18228;SDS011;9239;50.932;3.142;2023-06-01T01:42:25;41.63;;;26.60;;
18228;SDS011;9239;50.932;3.142;2023-06-01T01:44:52;38.87;;;26.70;;
18228;SDS011;9239;50.932;3.142;2023-06-01T01:47:23;35.43;;;25.43;;
18228;SDS011;9239;50.932;3.142;2023-06-01T01:49:56;33.37;;;24.80;;
18228;SDS011;9239;50.932;3.142;2023-06-01T01:52:32;35.87;;;25.50;;
18228;SDS011;9239;50.932;3.142;2023-06-01T01:55:01;40.30;;;27.37;;
18228;SDS011;9239;50.932;3.142;2023-06-01T01:57:29;36.63;;;25.20;;
18228;SDS011;9239;50.932;3.142;2023-06-01T01:59:58;43.03;;;27.30;;
18228;SDS011;9239;50.932;3.142;2023-06-01T02:02:26;37.83;;;25.40;;
18228;SDS011;9239;50.932;3.142;2023-06-01T02:04:54;40.87;;;26.87;;
18228;SDS011;9239;50.932;3.142;2023-06-01T02:07:21;38.90;;;25.73;;
18228;SDS011;9239;50.932;3.142;2023-06-01T02:09:48;36.47;;;26.20;;
18228;SDS011;9239;50.932;3.142;2023-06-01T02:12:15;35.53;;;25.80;;
18228;SDS011;9239;50.932;3.142;2023-06-01T02:14:42;37.00;;;25.23;;
18228;SDS011;9239;50.932;3.142;2023-06-01T02:17:09;36.33;;;25.80;;
18228;SDS011;9239;50.932;3.142;2023-06-01T02:19:37;35.13;;;26.40;;
18228;SDS011;9239;50.932;3.142;2023-06-01T02:22:05;39.03;;;26.17;;
18228;SDS011;9239;50.932;3.142;2023-06-01T02:24:32;43.63;;;27.57;;
18228;SDS011;9239;50.932;3.142;2023-06-01T02:26:58;38.87;;;28.57;;
18228;SDS011;9239;50.932;3.142;2023-06-01T02:29:25;38.37;;;27.97;;
18228;SDS011;9239;50.932;3.142;2023-06-01T02:31:52;44.20;;;28.20;;
18228;SDS011;9239;50.932;3.142;2023-06-01T02:34:20;41.43;;;28.30;;
18228;SDS011;9239;50.932;3.142;2023-06-01T02:36:48;43.77;;;28.83;;
18228;SDS011;9239;50.932;3.142;2023-06-01T02:39:16;39.23;;;29.70;;
18228;SDS011;9239;50.932;3.142;2023-06-01T02:41:43;38.13;;;28.47;;
18228;SDS011;9239;50.932;3.142;2023-06-01T02:44:10;39.83;;;29.43;;
18228;SDS011;9239;50.932;3.142;2023-06-01T02:46:37;39.07;;;28.63;;
18228;SDS011;9239;50.932;3.142;2023-06-01T02:49:04;39.77;;;28.87;;
18228;SDS011;9239;50.932;3.142;2023-06-01T02:51:31;41.30;;;29.87;;
18228;SDS011;9239;50.932;3.142;2023-06-01T02:54:00;36.67;;;28.00;;
18228;SDS011;9239;50.932;3.142;2023-06-01T02:56:27;41.77;;;29.73;;
18228;SDS011;9239;50.932;3.142;2023-06-01T02:58:53;40.07;;;28.60;;
18228;SDS011;9239;50.932;3.142;2023-06-01T03:01:21;43.40;;;29.93;;
18228;SDS011;9239;50.932;3.142;2023-06-01T03:03:47;41.60;;;30.07;;
18228;SDS011;9239;50.932;3.142;2023-06-01T03:06:17;43.60;;;29.37;;
18228;SDS011;9239;50.932;3.142;2023-06-01T03:08:46;39.67;;;28.90;;
18228;SDS011;9239;50.932;3.142;2023-06-01T03:11:15;39.60;;;29.23;;
18228;SDS011;9239;50.932;3.142;2023-06-01T03:13:42;39.23;;;30.20;;
18228;SDS011;9239;50.932;3.142;2023-06-01T03:16:09;38.93;;;28.37;;
18228;SDS011;9239;50.932;3.142;2023-06-01T03:18:36;41.03;;;29.10;;
18228;SDS011;9239;50.932;3.142;2023-06-01T03:21:02;36.70;;;27.63;;
18228;SDS011;9239;50.932;3.142;2023-06-01T03:23:29;39.80;;;27.57;;
18228;SDS011;9239;50.932;3.142;2023-06-01T03:25:56;40.73;;;28.23;;
18228;SDS011;9239;50.932;3.142;2023-06-01T03:28:24;42.47;;;28.93;;
18228;SDS011;9239;50.932;3.142;2023-06-01T03:30:51;38.93;;;28.13;;
18228;SDS011;9239;50.932;3.142;2023-06-01T03:33:18;40.00;;;29.70;;
18228;SDS011;9239;50.932;3.142;2023-06-01T03:35:45;41.70;;;30.17;;
18228;SDS011;9239;50.932;3.142;2023-06-01T03:38:14;41.37;;;29.57;;
18228;SDS011;9239;50.932;3.142;2023-06-01T03:40:41;43.50;;;31.33;;
18228;SDS011;9239;50.932;3.142;2023-06-01T03:43:08;45.63;;;32.27;;
18228;SDS011;9239;50.932;3.142;2023-06-01T03:45:37;41.93;;;30.83;;
18228;SDS011;9239;50.932;3.142;2023-06-01T03:48:04;45.10;;;34.50;;
18228;SDS011;9239;50.932;3.142;2023-06-01T03:50:32;49.67;;;34.90;;
18228;SDS011;9239;50.932;3.142;2023-06-01T03:52:59;55.63;;;37.87;;
18228;SDS011;9239;50.932;3.142;2023-06-01T03:55:26;67.70;;;40.40;;
18228;SDS011;9239;50.932;3.142;2023-06-01T03:57:55;65.53;;;43.20;;
18228;SDS011;9239;50.932;3.142;2023-06-01T04:00:22;66.77;;;44.20;;
18228;SDS011;9239;50.932;3.142;2023-06-01T04:02:51;74.43;;;44.53;;
18228;SDS011;9239;50.932;3.142;2023-06-01T04:05:20;71.23;;;44.43;;
18228;SDS011;9239;50.932;3.142;2023-06-01T04:07:48;66.20;;;43.67;;
18228;SDS011;9239;50.932;3.142;2023-06-01T04:10:16;66.13;;;44.40;;
18228;SDS011;9239;50.932;3.142;2023-06-01T04:12:44;62.03;;;41.93;;
18228;SDS011;9239;50.932;3.142;2023-06-01T04:15:14;57.27;;;38.93;;
18228;SDS011;9239;50.932;3.142;2023-06-01T04:17:43;62.57;;;42.33;;
18228;SDS011;9239;50.932;3.142;2023-06-01T04:20:12;60.40;;;40.57;;
18228;SDS011;9239;50.932;3.142;2023-06-01T04:22:41;56.67;;;38.43;;
18228;SDS011;9239;50.932;3.142;2023-06-01T04:25:09;59.53;;;37.30;;
18228;SDS011;9239;50.932;3.142;2023-06-01T04:27:37;58.10;;;39.40;;
18228;SDS011;9239;50.932;3.142;2023-06-01T04:30:10;57.97;;;37.87;;
18228;SDS011;9239;50.932;3.142;2023-06-01T04:32:37;54.63;;;38.17;;
18228;SDS011;9239;50.932;3.142;2023-06-01T04:35:05;55.20;;;37.33;;
18228;SDS011;9239;50.932;3.142;2023-06-01T04:37:35;57.13;;;37.43;;
18228;SDS011;9239;50.932;3.142;2023-06-01T04:40:04;49.87;;;36.07;;
18228;SDS011;9239;50.932;3.142;2023-06-01T04:42:33;48.50;;;35.90;;
18228;SDS011;9239;50.932;3.142;2023-06-01T04:45:00;48.90;;;35.63;;
18228;SDS011;9239;50.932;3.142;2023-06-01T04:47:29;48.80;;;34.60;;
18228;SDS011;9239;50.932;3.142;2023-06-01T04:49:56;48.10;;;34.47;;
18228;SDS011;9239;50.932;3.142;2023-06-01T04:52:24;46.23;;;34.40;;
18228;SDS011;9239;50.932;3.142;2023-06-01T04:54:52;56.13;;;38.43;;
18228;SDS011;9239;50.932;3.142;2023-06-01T04:57:19;44.50;;;35.00;;
18228;SDS011;9239;50.932;3.142;2023-06-01T04:59:48;53.87;;;38.37;;
18228;SDS011;9239;50.932;3.142;2023-06-01T05:02:15;50.27;;;37.07;;
18228;SDS011;9239;50.932;3.142;2023-06-01T05:04:42;52.03;;;37.20;;
18228;SDS011;9239;50.932;3.142;2023-06-01T05:07:09;49.60;;;36.87;;
18228;SDS011;9239;50.932;3.142;2023-06-01T05:09:35;49.97;;;36.50;;
18228;SDS011;9239;50.932;3.142;2023-06-01T05:12:04;55.33;;;37.43;;
18228;SDS011;9239;50.932;3.142;2023-06-01T05:14:32;52.37;;;37.40;;
18228;SDS011;9239;50.932;3.142;2023-06-01T05:16:59;46.77;;;34.93;;
18228;SDS011;9239;50.932;3.142;2023-06-01T05:19:26;49.63;;;35.27;;
18228;SDS011;9239;50.932;3.142;2023-06-01T05:21:52;46.73;;;34.87;;
18228;SDS011;9239;50.932;3.142;2023-06-01T05:24:19;48.27;;;34.40;;
18228;SDS011;9239;50.932;3.142;2023-06-01T05:26:46;43.13;;;32.87;;
18228;SDS011;9239;50.932;3.142;2023-06-01T05:29:14;42.00;;;31.40;;
18228;SDS011;9239;50.932;3.142;2023-06-01T05:31:41;41.80;;;31.73;;
18228;SDS011;9239;50.932;3.142;2023-06-01T05:34:08;36.97;;;28.17;;
18228;SDS011;9239;50.932;3.142;2023-06-01T05:36:35;38.47;;;28.90;;
18228;SDS011;9239;50.932;3.142;2023-06-01T05:39:02;36.80;;;29.60;;
18228;SDS011;9239;50.932;3.142;2023-06-01T05:41:29;37.47;;;27.43;;
18228;SDS011;9239;50.932;3.142;2023-06-01T05:43:56;38.07;;;29.43;;
18228;SDS011;9239;50.932;3.142;2023-06-01T05:46:24;35.60;;;28.23;;
18228;SDS011;9239;50.932;3.142;2023-06-01T05:48:51;37.40;;;28.17;;
18228;SDS011;9239;50.932;3.142;2023-06-01T05:51:18;33.00;;;26.20;;
18228;SDS011;9239;50.932;3.142;2023-06-01T05:53:45;32.63;;;26.87;;
18228;SDS011;9239;50.932;3.142;2023-06-01T05:56:12;33.63;;;27.87;;
18228;SDS011;9239;50.932;3.142;2023-06-01T05:58:39;38.77;;;27.10;;
18228;SDS011;9239;50.932;3.142;2023-06-01T06:01:05;35.20;;;27.07;;
18228;SDS011;9239;50.932;3.142;2023-06-01T06:03:34;37.47;;;27.00;;
18228;SDS011;9239;50.932;3.142;2023-06-01T06:06:01;36.53;;;26.23;;
18228;SDS011;9239;50.932;3.142;2023-06-01T06:08:28;31.10;;;24.93;;
18228;SDS011;9239;50.932;3.142;2023-06-01T06:10:55;29.73;;;23.70;;
18228;SDS011;9239;50.932;3.142;2023-06-01T06:13:22;31.23;;;23.20;;
18228;SDS011;9239;50.932;3.142;2023-06-01T06:15:49;32.77;;;25.40;;
18228;SDS011;9239;50.932;3.142;2023-06-01T06:18:16;31.80;;;24.57;;
18228;SDS011;9239;50.932;3.142;2023-06-01T06:20:45;30.43;;;24.23;;
18228;SDS011;9239;50.932;3.142;2023-06-01T06:23:12;27.83;;;22.67;;
18228;SDS011;9239;50.932;3.142;2023-06-01T06:25:40;27.70;;;22.27;;
18228;SDS011;9239;50.932;3.142;2023-06-01T06:28:08;30.03;;;22.03;;
18228;SDS011;9239;50.932;3.142;2023-06-01T06:30:34;30.70;;;23.90;;
18228;SDS011;9239;50.932;3.142;2023-06-01T06:33:02;32.07;;;24.90;;
18228;SDS011;9239;50.932;3.142;2023-06-01T06:35:29;33.27;;;24.70;;
18228;SDS011;9239;50.932;3.142;2023-06-01T06:37:57;31.43;;;24.80;;
18228;SDS011;9239;50.932;3.142;2023-06-01T06:40:24;32.37;;;25.57;;
18228;SDS011;9239;50.932;3.142;2023-06-01T06:42:51;35.70;;;24.67;;
18228;SDS011;9239;50.932;3.142;2023-06-01T06:45:17;35.23;;;25.93;;
18228;SDS011;9239;50.932;3.142;2023-06-01T06:47:45;32.03;;;24.07;;
18228;SDS011;9239;50.932;3.142;2023-06-01T06:50:12;29.67;;;23.67;;
18228;SDS011;9239;50.932;3.142;2023-06-01T06:52:38;32.47;;;24.50;;
18228;SDS011;9239;50.932;3.142;2023-06-01T06:55:08;27.70;;;24.60;;
18228;SDS011;9239;50.932;3.142;2023-06-01T06:57:35;24.90;;;22.10;;
18228;SDS011;9239;50.932;3.142;2023-06-01T07:00:05;30.37;;;22.30;;
18228;SDS011;9239;50.932;3.142;2023-06-01T07:02:33;29.70;;;23.43;;
18228;SDS011;9239;50.932;3.142;2023-06-01T07:05:01;27.47;;;23.07;;
18228;SDS011;9239;50.932;3.142;2023-06-01T07:07:29;25.87;;;21.83;;
18228;SDS011;9239;50.932;3.142;2023-06-01T07:09:56;27.53;;;22.27;;
18228;SDS011;9239;50.932;3.142;2023-06-01T07:12:24;25.80;;;21.37;;
18228;SDS011;9239;50.932;3.142;2023-06-01T07:14:51;27.80;;;21.73;;
18228;SDS011;9239;50.932;3.142;2023-06-01T07:17:19;28.13;;;23.07;;
18228;SDS011;9239;50.932;3.142;2023-06-01T07:19:46;27.03;;;23.13;;
18228;SDS011;9239;50.932;3.142;2023-06-01T07:22:13;28.40;;;22.57;;
18228;SDS011;9239;50.932;3.142;2023-06-01T07:24:42;26.87;;;22.10;;
18228;SDS011;9239;50.932;3.142;2023-06-01T07:27:10;31.57;;;23.70;;
18228;SDS011;9239;50.932;3.142;2023-06-01T07:29:39;26.30;;;22.03;;
18228;SDS011;9239;50.932;3.142;2023-06-01T07:32:06;26.23;;;22.00;;
18228;SDS011;9239;50.932;3.142;2023-06-01T07:34:33;27.47;;;21.30;;
18228;SDS011;9239;50.932;3.142;2023-06-01T07:37:00;27.97;;;23.57;;
18228;SDS011;9239;50.932;3.142;2023-06-01T07:39:29;30.00;;;24.23;;
18228;SDS011;9239;50.932;3.142;2023-06-01T07:41:56;26.00;;;22.92;;
18228;SDS011;9239;50.932;3.142;2023-06-01T07:44:22;28.15;;;24.58;;
18228;SDS011;9239;50.932;3.142;2023-06-01T07:46:51;27.85;;;24.42;;
18228;SDS011;9239;50.932;3.142;2023-06-01T07:49:18;24.98;;;22.17;;
18228;SDS011;9239;50.932;3.142;2023-06-01T07:51:45;29.45;;;22.55;;
18228;SDS011;9239;50.932;3.142;2023-06-01T07:54:12;29.08;;;24.77;;
18228;SDS011;9239;50.932;3.142;2023-06-01T07:56:39;28.42;;;25.33;;
18228;SDS011;9239;50.932;3.142;2023-06-01T07:59:05;30.88;;;24.52;;
18228;SDS011;9239;50.932;3.142;2023-06-01T08:01:32;31.23;;;27.50;;
18228;SDS011;9239;50.932;3.142;2023-06-01T08:04:01;35.30;;;27.88;;
18228;SDS011;9239;50.932;3.142;2023-06-01T08:06:28;34.75;;;27.15;;
18228;SDS011;9239;50.932;3.142;2023-06-01T08:09:01;28.67;;;24.77;;
18228;SDS011;9239;50.932;3.142;2023-06-01T08:11:28;34.60;;;25.27;;
18228;SDS011;9239;50.932;3.142;2023-06-01T08:13:56;29.50;;;24.30;;
18228;SDS011;9239;50.932;3.142;2023-06-01T08:16:25;26.27;;;23.15;;
18228;SDS011;9239;50.932;3.142;2023-06-01T08:18:52;26.90;;;23.50;;
18228;SDS011;9239;50.932;3.142;2023-06-01T08:21:22;30.02;;;24.48;;
18228;SDS011;9239;50.932;3.142;2023-06-01T08:23:50;25.38;;;22.27;;
18228;SDS011;9239;50.932;3.142;2023-06-01T08:26:17;26.70;;;22.50;;
18228;SDS011;9239;50.932;3.142;2023-06-01T08:28:45;26.77;;;23.75;;
18228;SDS011;9239;50.932;3.142;2023-06-01T08:31:16;24.65;;;22.13;;
18228;SDS011;9239;50.932;3.142;2023-06-01T08:33:44;25.65;;;21.75;;
18228;SDS011;9239;50.932;3.142;2023-06-01T08:36:11;26.85;;;22.58;;
18228;SDS011;9239;50.932;3.142;2023-06-01T08:38:39;26.00;;;23.20;;
18228;SDS011;9239;50.932;3.142;2023-06-01T08:41:10;25.13;;;21.85;;
18228;SDS011;9239;50.932;3.142;2023-06-01T08:43:40;26.83;;;22.55;;
18228;SDS011;9239;50.932;3.142;2023-06-01T08:46:09;25.42;;;22.70;;
18228;SDS011;9239;50.932;3.142;2023-06-01T08:48:37;27.95;;;24.75;;
18228;SDS011;9239;50.932;3.142;2023-06-01T08:51:06;25.27;;;22.20;;
18228;SDS011;9239;50.932;3.142;2023-06-01T08:53:34;26.00;;;22.13;;
18228;SDS011;9239;50.932;3.142;2023-06-01T08:56:03;24.80;;;22.10;;
18228;SDS011;9239;50.932;3.142;2023-06-01T08:58:30;26.90;;;23.80;;
18228;SDS011;9239;50.932;3.142;2023-06-01T09:00:57;26.00;;;23.35;;
18228;SDS011;9239;50.932;3.142;2023-06-01T09:03:25;30.60;;;25.35;;
18228;SDS011;9239;50.932;3.142;2023-06-01T09:05:52;26.58;;;23.77;;
18228;SDS011;9239;50.932;3.142;2023-06-01T09:08:19;24.38;;;21.65;;
18228;SDS011;9239;50.932;3.142;2023-06-01T09:10:47;22.35;;;19.95;;
18228;SDS011;9239;50.932;3.142;2023-06-01T09:13:19;23.30;;;20.55;;
18228;SDS011;9239;50.932;3.142;2023-06-01T09:15:57;24.58;;;19.88;;
18228;SDS011;9239;50.932;3.142;2023-06-01T09:18:24;22.92;;;20.45;;
18228;SDS011;9239;50.932;3.142;2023-06-01T09:20:51;23.75;;;20.90;;
18228;SDS011;9239;50.932;3.142;2023-06-01T09:23:25;25.42;;;22.15;;
18228;SDS011;9239;50.932;3.142;2023-06-01T09:26:05;24.02;;;20.52;;
18228;SDS011;9239;50.932;3.142;2023-06-01T09:31:36;21.85;;;19.35;;
18228;SDS011;9239;50.932;3.142;2023-06-01T09:34:04;22.33;;;20.00;;
18228;SDS011;9239;50.932;3.142;2023-06-01T09:36:32;24.60;;;21.05;;
18228;SDS011;9239;50.932;3.142;2023-06-01T09:39:02;21.63;;;19.33;;
18228;SDS011;9239;50.932;3.142;2023-06-01T09:41:52;21.35;;;18.73;;
18228;SDS011;9239;50.932;3.142;2023-06-01T09:44:25;21.30;;;17.65;;
18228;SDS011;9239;50.932;3.142;2023-06-01T09:46:54;21.23;;;18.05;;
18228;SDS011;9239;50.932;3.142;2023-06-01T09:49:23;21.27;;;18.55;;
18228;SDS011;9239;50.932;3.142;2023-06-01T09:51:51;22.05;;;18.45;;
18228;SDS011;9239;50.932;3.142;2023-06-01T09:54:22;22.20;;;18.25;;
18228;SDS011;9239;50.932;3.142;2023-06-01T09:56:53;21.92;;;17.42;;
18228;SDS011;9239;50.932;3.142;2023-06-01T09:59:21;20.13;;;18.23;;
18228;SDS011;9239;50.932;3.142;2023-06-01T10:01:51;19.35;;;17.30;;
18228;SDS011;9239;50.932;3.142;2023-06-01T10:04:20;18.10;;;15.82;;
18228;SDS011;9239;50.932;3.142;2023-06-01T10:06:49;20.15;;;16.92;;
18228;SDS011;9239;50.932;3.142;2023-06-01T10:09:19;20.83;;;18.63;;
18228;SDS011;9239;50.932;3.142;2023-06-01T10:11:47;20.55;;;17.08;;
18228;SDS011;9239;50.932;3.142;2023-06-01T10:14:16;19.33;;;17.30;;
18228;SDS011;9239;50.932;3.142;2023-06-01T10:16:43;18.67;;;16.83;;
18228;SDS011;9239;50.932;3.142;2023-06-01T10:19:12;20.27;;;17.98;;
18228;SDS011;9239;50.932;3.142;2023-06-01T10:21:39;19.40;;;17.27;;
18228;SDS011;9239;50.932;3.142;2023-06-01T10:24:07;19.45;;;17.45;;
18228;SDS011;9239;50.932;3.142;2023-06-01T10:26:38;21.83;;;19.10;;
18228;SDS011;9239;50.932;3.142;2023-06-01T10:29:10;19.45;;;16.77;;
18228;SDS011;9239;50.932;3.142;2023-06-01T10:31:38;20.55;;;18.35;;
18228;SDS011;9239;50.932;3.142;2023-06-01T10:34:07;20.48;;;18.20;;
18228;SDS011;9239;50.932;3.142;2023-06-01T10:39:41;20.35;;;17.67;;
18228;SDS011;9239;50.932;3.142;2023-06-01T10:45:04;21.85;;;17.73;;
18228;SDS011;9239;50.932;3.142;2023-06-01T10:47:45;22.88;;;17.45;;
18228;SDS011;9239;50.932;3.142;2023-06-01T10:50:14;20.20;;;16.45;;
18228;SDS011;9239;50.932;3.142;2023-06-01T10:52:42;17.83;;;15.80;;
18228;SDS011;9239;50.932;3.142;2023-06-01T10:55:20;16.83;;;15.13;;
18228;SDS011;9239;50.932;3.142;2023-06-01T10:57:48;18.40;;;15.70;;
18228;SDS011;9239;50.932;3.142;2023-06-01T11:00:17;15.75;;;13.52;;
18228;SDS011;9239;50.932;3.142;2023-06-01T11:02:48;16.55;;;14.73;;
18228;SDS011;9239;50.932;3.142;2023-06-01T11:05:37;20.23;;;15.68;;
18228;SDS011;9239;50.932;3.142;2023-06-01T11:08:05;16.55;;;14.90;;
18228;SDS011;9239;50.932;3.142;2023-06-01T11:13:28;16.92;;;15.13;;
18228;SDS011;9239;50.932;3.142;2023-06-01T11:18:55;17.15;;;15.55;;
18228;SDS011;9239;50.932;3.142;2023-06-01T11:21:24;18.52;;;14.48;;
18228;SDS011;9239;50.932;3.142;2023-06-01T11:23:53;19.10;;;17.05;;
18228;SDS011;9239;50.932;3.142;2023-06-01T11:26:22;18.33;;;15.60;;
18228;SDS011;9239;50.932;3.142;2023-06-01T11:28:52;16.38;;;14.63;;
18228;SDS011;9239;50.932;3.142;2023-06-01T11:31:33;18.67;;;14.50;;
18228;SDS011;9239;50.932;3.142;2023-06-01T11:34:02;16.23;;;14.52;;
18228;SDS011;9239;50.932;3.142;2023-06-01T11:36:30;18.02;;;14.90;;
18228;SDS011;9239;50.932;3.142;2023-06-01T11:39:03;18.75;;;16.48;;
18228;SDS011;9239;50.932;3.142;2023-06-01T11:41:34;17.67;;;15.88;;
18228;SDS011;9239;50.932;3.142;2023-06-01T11:44:01;17.25;;;15.23;;
18228;SDS011;9239;50.932;3.142;2023-06-01T11:46:28;16.85;;;15.10;;
18228;SDS011;9239;50.932;3.142;2023-06-01T11:48:59;17.63;;;15.77;;
18228;SDS011;9239;50.932;3.142;2023-06-01T11:51:28;17.08;;;14.93;;
18228;SDS011;9239;50.932;3.142;2023-06-01T11:53:56;20.05;;;14.45;;
18228;SDS011;9239;50.932;3.142;2023-06-01T11:56:29;17.98;;;16.17;;
18228;SDS011;9239;50.932;3.142;2023-06-01T11:58:58;17.02;;;15.23;;
18228;SDS011;9239;50.932;3.142;2023-06-01T12:01:26;18.83;;;15.02;;
18228;SDS011;9239;50.932;3.142;2023-06-01T12:03:54;16.63;;;14.50;;
18228;SDS011;9239;50.932;3.142;2023-06-01T12:06:23;17.73;;;13.50;;
18228;SDS011;9239;50.932;3.142;2023-06-01T12:08:51;16.85;;;13.45;;
18228;SDS011;9239;50.932;3.142;2023-06-01T12:11:20;16.92;;;13.18;;
18228;SDS011;9239;50.932;3.142;2023-06-01T12:13:51;16.25;;;14.15;;
18228;SDS011;9239;50.932;3.142;2023-06-01T12:16:20;18.50;;;13.35;;
18228;SDS011;9239;50.932;3.142;2023-06-01T12:18:47;17.30;;;13.63;;
18228;SDS011;9239;50.932;3.142;2023-06-01T12:21:14;15.35;;;13.15;;
18228;SDS011;9239;50.932;3.142;2023-06-01T12:23:42;18.73;;;12.48;;
18228;SDS011;9239;50.932;3.142;2023-06-01T12:26:09;15.10;;;12.32;;
18228;SDS011;9239;50.932;3.142;2023-06-01T12:28:49;14.13;;;11.43;;
18228;SDS011;9239;50.932;3.142;2023-06-01T12:31:18;15.43;;;12.25;;
18228;SDS011;9239;50.932;3.142;2023-06-01T12:33:47;15.07;;;11.52;;
18228;SDS011;9239;50.932;3.142;2023-06-01T12:36:30;13.57;;;11.18;;
18228;SDS011;9239;50.932;3.142;2023-06-01T12:38:58;12.10;;;10.90;;
18228;SDS011;9239;50.932;3.142;2023-06-01T12:41:25;12.55;;;10.05;;
18228;SDS011;9239;50.932;3.142;2023-06-01T12:43:54;16.63;;;10.57;;
18228;SDS011;9239;50.932;3.142;2023-06-01T12:46:24;10.85;;;8.10;;
18228;SDS011;9239;50.932;3.142;2023-06-01T12:48:53;9.93;;;8.52;;
18228;SDS011;9239;50.932;3.142;2023-06-01T12:51:20;13.98;;;8.93;;
18228;SDS011;9239;50.932;3.142;2023-06-01T12:53:48;11.18;;;8.98;;
18228;SDS011;9239;50.932;3.142;2023-06-01T12:56:15;12.35;;;9.43;;
18228;SDS011;9239;50.932;3.142;2023-06-01T12:58:42;10.60;;;8.57;;
18228;SDS011;9239;50.932;3.142;2023-06-01T13:01:09;9.55;;;7.70;;
18228;SDS011;9239;50.932;3.142;2023-06-01T13:03:37;12.88;;;8.95;;
18228;SDS011;9239;50.932;3.142;2023-06-01T13:06:04;14.15;;;8.27;;
18228;SDS011;9239;50.932;3.142;2023-06-01T13:08:33;14.10;;;8.65;;
18228;SDS011;9239;50.932;3.142;2023-06-01T13:11:00;9.80;;;8.40;;
18228;SDS011;9239;50.932;3.142;2023-06-01T13:13:27;8.23;;;7.30;;
18228;SDS011;9239;50.932;3.142;2023-06-01T13:15:54;9.68;;;7.57;;
18228;SDS011;9239;50.932;3.142;2023-06-01T13:18:21;10.95;;;7.80;;
18228;SDS011;9239;50.932;3.142;2023-06-01T13:20:50;13.45;;;7.28;;
18228;SDS011;9239;50.932;3.142;2023-06-01T13:23:17;10.05;;;6.90;;
18228;SDS011;9239;50.932;3.142;2023-06-01T13:25:44;12.48;;;8.10;;
18228;SDS011;9239;50.932;3.142;2023-06-01T13:28:11;9.20;;;7.25;;
18228;SDS011;9239;50.932;3.142;2023-06-01T13:30:38;10.52;;;7.25;;
18228;SDS011;9239;50.932;3.142;2023-06-01T13:33:05;8.38;;;7.43;;
18228;SDS011;9239;50.932;3.142;2023-06-01T13:35:32;8.57;;;7.03;;
18228;SDS011;9239;50.932;3.142;2023-06-01T13:38:01;11.00;;;7.53;;
18228;SDS011;9239;50.932;3.142;2023-06-01T13:40:28;7.47;;;6.13;;
18228;SDS011;9239;50.932;3.142;2023-06-01T13:42:55;9.55;;;7.05;;
18228;SDS011;9239;50.932;3.142;2023-06-01T13:45:22;10.13;;;7.30;;
18228;SDS011;9239;50.932;3.142;2023-06-01T13:47:49;9.82;;;7.70;;
18228;SDS011;9239;50.932;3.142;2023-06-01T13:50:16;12.65;;;8.68;;
18228;SDS011;9239;50.932;3.142;2023-06-01T13:52:43;12.98;;;7.60;;
18228;SDS011;9239;50.932;3.142;2023-06-01T13:55:12;12.23;;;7.13;;
18228;SDS011;9239;50.932;3.142;2023-06-01T13:57:39;11.27;;;6.82;;
18228;SDS011;9239;50.932;3.142;2023-06-01T14:00:07;9.65;;;5.88;;
18228;SDS011;9239;50.932;3.142;2023-06-01T14:02:35;7.90;;;5.65;;
18228;SDS011;9239;50.932;3.142;2023-06-01T14:05:02;11.00;;;6.45;;
18228;SDS011;9239;50.932;3.142;2023-06-01T14:07:30;8.85;;;6.03;;
18228;SDS011;9239;50.932;3.142;2023-06-01T14:09:57;9.38;;;5.70;;
18228;SDS011;9239;50.932;3.142;2023-06-01T14:12:25;7.72;;;5.70;;
18228;SDS011;9239;50.932;3.142;2023-06-01T14:14:52;11.68;;;5.93;;
18228;SDS011;9239;50.932;3.142;2023-06-01T14:17:19;7.47;;;5.75;;
18228;SDS011;9239;50.932;3.142;2023-06-01T14:19:46;11.07;;;6.28;;
18228;SDS011;9239;50.932;3.142;2023-06-01T14:22:12;10.95;;;6.28;;
18228;SDS011;9239;50.932;3.142;2023-06-01T14:24:39;10.38;;;6.72;;
18228;SDS011;9239;50.932;3.142;2023-06-01T14:27:06;6.78;;;4.10;;
18228;SDS011;9239;50.932;3.142;2023-06-01T14:29:35;13.10;;;6.00;;
18228;SDS011;9239;50.932;3.142;2023-06-01T14:32:02;8.65;;;6.18;;
18228;SDS011;9239;50.932;3.142;2023-06-01T14:34:29;7.75;;;5.57;;
18228;SDS011;9239;50.932;3.142;2023-06-01T14:36:56;7.18;;;5.40;;
18228;SDS011;9239;50.932;3.142;2023-06-01T14:39:23;12.50;;;5.55;;
18228;SDS011;9239;50.932;3.142;2023-06-01T14:41:50;7.32;;;5.53;;
18228;SDS011;9239;50.932;3.142;2023-06-01T14:44:17;7.65;;;5.57;;
18228;SDS011;9239;50.932;3.142;2023-06-01T14:46:45;7.07;;;5.28;;
18228;SDS011;9239;50.932;3.142;2023-06-01T14:49:12;8.27;;;5.28;;
18228;SDS011;9239;50.932;3.142;2023-06-01T14:51:39;8.15;;;5.30;;
18228;SDS011;9239;50.932;3.142;2023-06-01T14:54:06;9.02;;;4.80;;
18228;SDS011;9239;50.932;3.142;2023-06-01T14:56:32;7.55;;;5.63;;
18228;SDS011;9239;50.932;3.142;2023-06-01T14:59:00;9.18;;;4.88;;
18228;SDS011;9239;50.932;3.142;2023-06-01T15:01:27;8.77;;;5.35;;